sensor_id;sensor_type;location;lat;lon;timestamp;P1;durP1;ratioP1;P2;durP2;ratioP2
47413;SDS011;33163;0.000;0.000;2023-02-12T00:00:49;4.70;;;2.47;;
47413;SDS011;33163;0.000;0.000;2023-02-12T00:03:16;5.50;;;3.08;;
47413;SDS011;33163;0.000;0.000;2023-02-12T00:05:45;6.72;;;3.08;;
47413;SDS011;33163;0.000;0.000;2023-02-12T00:08:11;6.30;;;2.55;;
47413;SDS011;33163;0.000;0.000;2023-02-12T00:10:40;3.85;;;2.00;;
47413;SDS011;33163;0.000;0.000;2023-02-12T00:13:07;2.72;;;2.05;;
47413;SDS011;33163;0.000;0.000;2023-02-12T00:15:36;4.07;;;2.17;;
47413;SDS011;33163;0.000;0.000;2023-02-12T00:18:03;4.38;;;2.33;;
47413;SDS011;33163;0.000;0.000;2023-02-12T00:20:30;4.95;;;2.72;;
47413;SDS011;33163;0.000;0.000;2023-02-12T00:22:58;3.97;;;2.17;;
47413;SDS011;33163;0.000;0.000;2023-02-12T00:25:25;8.25;;;2.58;;
47413;SDS011;33163;0.000;0.000;2023-02-12T00:27:52;4.07;;;2.40;;
47413;SDS011;33163;0.000;0.000;2023-02-12T00:30:19;3.80;;;2.30;;
47413;SDS011;33163;0.000;0.000;2023-02-12T00:32:45;3.70;;;2.03;;
47413;SDS011;33163;0.000;0.000;2023-02-12T00:35:12;4.93;;;2.55;;
47413;SDS011;33163;0.000;0.000;2023-02-12T00:37:40;6.25;;;2.63;;
47413;SDS011;33163;0.000;0.000;2023-02-12T00:40:08;4.95;;;2.40;;
47413;SDS011;33163;0.000;0.000;2023-02-12T00:42:36;3.55;;;2.35;;
47413;SDS011;33163;0.000;0.000;2023-02-12T00:45:02;4.72;;;2.20;;
47413;SDS011;33163;0.000;0.000;2023-02-12T00:47:29;4.32;;;2.00;;
47413;SDS011;33163;0.000;0.000;2023-02-12T00:49:56;4.07;;;2.17;;
47413;SDS011;33163;0.000;0.000;2023-02-12T00:52:23;3.65;;;1.90;;
47413;SDS011;33163;0.000;0.000;2023-02-12T00:54:50;2.95;;;2.13;;
47413;SDS011;33163;0.000;0.000;2023-02-12T00:57:18;4.50;;;1.90;;
47413;SDS011;33163;0.000;0.000;2023-02-12T00:59:45;3.15;;;1.88;;
47413;SDS011;33163;0.000;0.000;2023-02-12T01:02:12;2.95;;;1.70;;
47413;SDS011;33163;0.000;0.000;2023-02-12T01:04:38;2.45;;;2.03;;
47413;SDS011;33163;0.000;0.000;2023-02-12T01:07:05;3.17;;;2.17;;
47413;SDS011;33163;0.000;0.000;2023-02-12T01:09:32;3.70;;;2.00;;
47413;SDS011;33163;0.000;0.000;2023-02-12T01:11:59;2.97;;;1.92;;
47413;SDS011;33163;0.000;0.000;2023-02-12T01:14:27;2.55;;;2.35;;
47413;SDS011;33163;0.000;0.000;2023-02-12T01:16:53;3.10;;;1.90;;
47413;SDS011;33163;0.000;0.000;2023-02-12T01:19:20;3.83;;;2.10;;
47413;SDS011;33163;0.000;0.000;2023-02-12T01:21:47;3.63;;;2.03;;
47413;SDS011;33163;0.000;0.000;2023-02-12T01:24:14;6.63;;;2.75;;
47413;SDS011;33163;0.000;0.000;2023-02-12T01:26:40;3.50;;;2.05;;
47413;SDS011;33163;0.000;0.000;2023-02-12T01:29:07;3.88;;;2.30;;
47413;SDS011;33163;0.000;0.000;2023-02-12T01:31:36;4.50;;;1.98;;
47413;SDS011;33163;0.000;0.000;2023-02-12T01:34:04;4.03;;;2.40;;
47413;SDS011;33163;0.000;0.000;2023-02-12T01:36:32;2.63;;;1.85;;
47413;SDS011;33163;0.000;0.000;2023-02-12T01:38:59;3.35;;;2.13;;
47413;SDS011;33163;0.000;0.000;2023-02-12T01:41:28;4.32;;;1.83;;
47413;SDS011;33163;0.000;0.000;2023-02-12T01:44:06;6.03;;;2.40;;
47413;SDS011;33163;0.000;0.000;2023-02-12T01:46:36;3.33;;;2.13;;
47413;SDS011;33163;0.000;0.000;2023-02-12T01:49:06;2.28;;;1.77;;
47413;SDS011;33163;0.000;0.000;2023-02-12T01:51:36;4.05;;;1.92;;
47413;SDS011;33163;0.000;0.000;2023-02-12T01:54:05;3.15;;;1.92;;
47413;SDS011;33163;0.000;0.000;2023-02-12T01:56:33;2.50;;;1.60;;
47413;SDS011;33163;0.000;0.000;2023-02-12T01:59:00;3.50;;;2.03;;
47413;SDS011;33163;0.000;0.000;2023-02-12T02:01:28;3.65;;;2.17;;
47413;SDS011;33163;0.000;0.000;2023-02-12T02:03:59;4.38;;;2.25;;
47413;SDS011;33163;0.000;0.000;2023-02-12T02:06:30;2.92;;;1.55;;
47413;SDS011;33163;0.000;0.000;2023-02-12T02:08:59;3.25;;;1.58;;
47413;SDS011;33163;0.000;0.000;2023-02-12T02:11:27;3.33;;;1.52;;
47413;SDS011;33163;0.000;0.000;2023-02-12T02:14:11;4.57;;;2.00;;
47413;SDS011;33163;0.000;0.000;2023-02-12T02:17:00;2.10;;;1.33;;
47413;SDS011;33163;0.000;0.000;2023-02-12T02:19:54;1.75;;;1.50;;
47413;SDS011;33163;0.000;0.000;2023-02-12T02:22:46;2.45;;;1.40;;
47413;SDS011;33163;0.000;0.000;2023-02-12T02:25:34;3.85;;;1.65;;
47413;SDS011;33163;0.000;0.000;2023-02-12T02:28:16;3.85;;;1.60;;
47413;SDS011;33163;0.000;0.000;2023-02-12T02:30:54;2.50;;;1.23;;
47413;SDS011;33163;0.000;0.000;2023-02-12T02:33:31;2.10;;;1.15;;
47413;SDS011;33163;0.000;0.000;2023-02-12T02:36:11;2.85;;;1.40;;
47413;SDS011;33163;0.000;0.000;2023-02-12T02:38:44;1.65;;;1.50;;
47413;SDS011;33163;0.000;0.000;2023-02-12T02:41:16;4.25;;;1.73;;
47413;SDS011;33163;0.000;0.000;2023-02-12T02:43:50;2.97;;;1.60;;
47413;SDS011;33163;0.000;0.000;2023-02-12T02:46:19;1.83;;;1.38;;
47413;SDS011;33163;0.000;0.000;2023-02-12T02:48:52;2.22;;;1.48;;
47413;SDS011;33163;0.000;0.000;2023-02-12T02:51:22;1.42;;;1.33;;
47413;SDS011;33163;0.000;0.000;2023-02-12T02:53:53;5.35;;;1.58;;
47413;SDS011;33163;0.000;0.000;2023-02-12T02:56:26;4.65;;;1.55;;
47413;SDS011;33163;0.000;0.000;2023-02-12T02:58:55;2.33;;;1.42;;
47413;SDS011;33163;0.000;0.000;2023-02-12T03:01:27;1.50;;;1.10;;
47413;SDS011;33163;0.000;0.000;2023-02-12T03:04:01;2.47;;;1.30;;
47413;SDS011;33163;0.000;0.000;2023-02-12T03:06:32;3.55;;;1.40;;
47413;SDS011;33163;0.000;0.000;2023-02-12T03:09:05;2.20;;;1.25;;
47413;SDS011;33163;0.000;0.000;2023-02-12T03:11:39;1.98;;;1.10;;
47413;SDS011;33163;0.000;0.000;2023-02-12T03:14:07;2.35;;;1.40;;
47413;SDS011;33163;0.000;0.000;2023-02-12T03:16:40;1.48;;;1.35;;
47413;SDS011;33163;0.000;0.000;2023-02-12T03:19:14;1.58;;;1.10;;
47413;SDS011;33163;0.000;0.000;2023-02-12T03:21:45;2.45;;;1.30;;
47413;SDS011;33163;0.000;0.000;2023-02-12T03:24:17;1.52;;;1.10;;
47413;SDS011;33163;0.000;0.000;2023-02-12T03:26:51;1.92;;;1.20;;
47413;SDS011;33163;0.000;0.000;2023-02-12T03:29:24;2.15;;;1.20;;
47413;SDS011;33163;0.000;0.000;2023-02-12T03:31:57;1.73;;;1.33;;
47413;SDS011;33163;0.000;0.000;2023-02-12T03:34:38;1.58;;;1.30;;
47413;SDS011;33163;0.000;0.000;2023-02-12T03:37:13;1.58;;;1.20;;
47413;SDS011;33163;0.000;0.000;2023-02-12T03:39:44;1.08;;;1.00;;
47413;SDS011;33163;0.000;0.000;2023-02-12T03:42:17;1.50;;;1.38;;
47413;SDS011;33163;0.000;0.000;2023-02-12T03:44:52;1.42;;;1.00;;
47413;SDS011;33163;0.000;0.000;2023-02-12T03:47:24;1.40;;;1.05;;
47413;SDS011;33163;0.000;0.000;2023-02-12T03:50:01;1.88;;;1.17;;
47413;SDS011;33163;0.000;0.000;2023-02-12T03:52:32;2.13;;;1.15;;
47413;SDS011;33163;0.000;0.000;2023-02-12T03:54:59;1.67;;;1.20;;
47413;SDS011;33163;0.000;0.000;2023-02-12T03:57:26;1.33;;;1.10;;
47413;SDS011;33163;0.000;0.000;2023-02-12T03:59:58;2.95;;;1.08;;
47413;SDS011;33163;0.000;0.000;2023-02-12T04:02:31;2.58;;;1.20;;
47413;SDS011;33163;0.000;0.000;2023-02-12T04:05:02;1.80;;;1.20;;
47413;SDS011;33163;0.000;0.000;2023-02-12T04:07:30;2.55;;;1.25;;
47413;SDS011;33163;0.000;0.000;2023-02-12T04:09:57;2.03;;;1.08;;
47413;SDS011;33163;0.000;0.000;2023-02-12T04:12:30;1.55;;;1.10;;
47413;SDS011;33163;0.000;0.000;2023-02-12T04:15:07;1.73;;;0.95;;
47413;SDS011;33163;0.000;0.000;2023-02-12T04:17:46;1.50;;;1.20;;
47413;SDS011;33163;0.000;0.000;2023-02-12T04:20:21;1.77;;;0.90;;
47413;SDS011;33163;0.000;0.000;2023-02-12T04:22:53;2.80;;;1.45;;
47413;SDS011;33163;0.000;0.000;2023-02-12T04:25:31;1.35;;;0.85;;
47413;SDS011;33163;0.000;0.000;2023-02-12T04:28:09;0.82;;;0.80;;
47413;SDS011;33163;0.000;0.000;2023-02-12T04:30:45;1.80;;;1.10;;
47413;SDS011;33163;0.000;0.000;2023-02-12T04:33:21;1.67;;;0.80;;
47413;SDS011;33163;0.000;0.000;2023-02-12T04:35:51;1.15;;;0.98;;
47413;SDS011;33163;0.000;0.000;2023-02-12T04:38:26;0.90;;;0.85;;
47413;SDS011;33163;0.000;0.000;2023-02-12T04:40:56;2.10;;;1.27;;
47413;SDS011;33163;0.000;0.000;2023-02-12T04:43:27;1.70;;;1.00;;
47413;SDS011;33163;0.000;0.000;2023-02-12T04:45:55;1.95;;;1.02;;
47413;SDS011;33163;0.000;0.000;2023-02-12T04:48:23;1.67;;;0.77;;
47413;SDS011;33163;0.000;0.000;2023-02-12T04:50:53;2.00;;;0.93;;
47413;SDS011;33163;0.000;0.000;2023-02-12T04:53:20;2.33;;;1.20;;
47413;SDS011;33163;0.000;0.000;2023-02-12T04:55:46;1.13;;;1.00;;
47413;SDS011;33163;0.000;0.000;2023-02-12T04:58:14;0.85;;;0.80;;
47413;SDS011;33163;0.000;0.000;2023-02-12T05:00:41;1.55;;;0.73;;
47413;SDS011;33163;0.000;0.000;2023-02-12T05:03:08;0.70;;;0.70;;
47413;SDS011;33163;0.000;0.000;2023-02-12T05:05:36;1.70;;;1.08;;
47413;SDS011;33163;0.000;0.000;2023-02-12T05:08:03;0.93;;;0.93;;
47413;SDS011;33163;0.000;0.000;2023-02-12T05:10:30;1.33;;;0.90;;
47413;SDS011;33163;0.000;0.000;2023-02-12T05:12:57;1.80;;;0.93;;
47413;SDS011;33163;0.000;0.000;2023-02-12T05:15:23;1.13;;;0.80;;
47413;SDS011;33163;0.000;0.000;2023-02-12T05:17:50;1.25;;;0.80;;
47413;SDS011;33163;0.000;0.000;2023-02-12T05:20:17;1.73;;;0.90;;
47413;SDS011;33163;0.000;0.000;2023-02-12T05:22:45;2.45;;;0.90;;
47413;SDS011;33163;0.000;0.000;2023-02-12T05:25:17;1.13;;;0.80;;
47413;SDS011;33163;0.000;0.000;2023-02-12T05:27:44;1.00;;;0.90;;
47413;SDS011;33163;0.000;0.000;2023-02-12T05:30:11;1.20;;;0.80;;
47413;SDS011;33163;0.000;0.000;2023-02-12T05:32:38;1.00;;;0.90;;
47413;SDS011;33163;0.000;0.000;2023-02-12T05:35:05;1.48;;;0.75;;
47413;SDS011;33163;0.000;0.000;2023-02-12T05:37:33;1.58;;;0.80;;
47413;SDS011;33163;0.000;0.000;2023-02-12T05:40:01;0.82;;;0.82;;
47413;SDS011;33163;0.000;0.000;2023-02-12T05:42:29;0.70;;;0.70;;
47413;SDS011;33163;0.000;0.000;2023-02-12T05:44:55;2.10;;;0.93;;
47413;SDS011;33163;0.000;0.000;2023-02-12T05:47:22;3.97;;;1.00;;
47413;SDS011;33163;0.000;0.000;2023-02-12T05:49:49;0.95;;;0.80;;
47413;SDS011;33163;0.000;0.000;2023-02-12T05:52:16;0.80;;;0.80;;
47413;SDS011;33163;0.000;0.000;2023-02-12T05:54:42;2.75;;;1.00;;
47413;SDS011;33163;0.000;0.000;2023-02-12T05:57:11;1.00;;;0.93;;
47413;SDS011;33163;0.000;0.000;2023-02-12T05:59:38;1.52;;;0.95;;
47413;SDS011;33163;0.000;0.000;2023-02-12T06:02:04;1.83;;;0.85;;
47413;SDS011;33163;0.000;0.000;2023-02-12T06:04:31;0.93;;;0.85;;
47413;SDS011;33163;0.000;0.000;2023-02-12T06:06:58;0.95;;;0.95;;
47413;SDS011;33163;0.000;0.000;2023-02-12T06:09:25;1.17;;;0.70;;
47413;SDS011;33163;0.000;0.000;2023-02-12T06:11:52;2.42;;;1.10;;
47413;SDS011;33163;0.000;0.000;2023-02-12T06:14:20;1.15;;;0.60;;
47413;SDS011;33163;0.000;0.000;2023-02-12T06:16:47;0.98;;;0.88;;
47413;SDS011;33163;0.000;0.000;2023-02-12T06:19:16;1.00;;;0.90;;
47413;SDS011;33163;0.000;0.000;2023-02-12T06:21:44;1.48;;;1.13;;
47413;SDS011;33163;0.000;0.000;2023-02-12T06:24:11;1.23;;;0.98;;
47413;SDS011;33163;0.000;0.000;2023-02-12T06:26:38;1.48;;;0.70;;
47413;SDS011;33163;0.000;0.000;2023-02-12T06:29:05;1.80;;;1.17;;
47413;SDS011;33163;0.000;0.000;2023-02-12T06:31:34;0.82;;;0.80;;
47413;SDS011;33163;0.000;0.000;2023-02-12T06:34:02;1.75;;;1.08;;
47413;SDS011;33163;0.000;0.000;2023-02-12T06:36:30;2.05;;;0.90;;
47413;SDS011;33163;0.000;0.000;2023-02-12T06:38:57;1.77;;;1.10;;
47413;SDS011;33163;0.000;0.000;2023-02-12T06:41:25;0.93;;;0.80;;
47413;SDS011;33163;0.000;0.000;2023-02-12T06:43:52;2.40;;;0.80;;
47413;SDS011;33163;0.000;0.000;2023-02-12T06:46:18;1.25;;;0.75;;
47413;SDS011;33163;0.000;0.000;2023-02-12T06:48:48;1.17;;;1.05;;
47413;SDS011;33163;0.000;0.000;2023-02-12T06:51:18;1.58;;;0.80;;
47413;SDS011;33163;0.000;0.000;2023-02-12T06:53:46;0.95;;;0.88;;
47413;SDS011;33163;0.000;0.000;2023-02-12T06:56:13;2.08;;;0.77;;
47413;SDS011;33163;0.000;0.000;2023-02-12T06:58:40;1.73;;;1.10;;
47413;SDS011;33163;0.000;0.000;2023-02-12T07:01:08;1.35;;;1.00;;
47413;SDS011;33163;0.000;0.000;2023-02-12T07:03:37;1.27;;;0.98;;
47413;SDS011;33163;0.000;0.000;2023-02-12T07:06:06;1.50;;;0.80;;
47413;SDS011;33163;0.000;0.000;2023-02-12T07:08:34;1.38;;;1.00;;
47413;SDS011;33163;0.000;0.000;2023-02-12T07:11:00;2.10;;;1.00;;
47413;SDS011;33163;0.000;0.000;2023-02-12T07:13:27;1.80;;;1.08;;
47413;SDS011;33163;0.000;0.000;2023-02-12T07:15:54;2.17;;;0.90;;
47413;SDS011;33163;0.000;0.000;2023-02-12T07:18:21;2.20;;;1.00;;
47413;SDS011;33163;0.000;0.000;2023-02-12T07:20:48;1.23;;;1.08;;
47413;SDS011;33163;0.000;0.000;2023-02-12T07:23:16;1.00;;;0.90;;
47413;SDS011;33163;0.000;0.000;2023-02-12T07:25:42;1.10;;;1.10;;
47413;SDS011;33163;0.000;0.000;2023-02-12T07:28:09;1.17;;;0.90;;
47413;SDS011;33163;0.000;0.000;2023-02-12T07:30:36;1.33;;;0.88;;
47413;SDS011;33163;0.000;0.000;2023-02-12T07:33:05;1.58;;;0.98;;
47413;SDS011;33163;0.000;0.000;2023-02-12T07:35:32;0.85;;;0.85;;
47413;SDS011;33163;0.000;0.000;2023-02-12T07:37:58;0.85;;;0.85;;
47413;SDS011;33163;0.000;0.000;2023-02-12T07:40:26;0.98;;;0.82;;
47413;SDS011;33163;0.000;0.000;2023-02-12T07:42:54;2.40;;;1.27;;
47413;SDS011;33163;0.000;0.000;2023-02-12T07:45:21;3.05;;;1.20;;
47413;SDS011;33163;0.000;0.000;2023-02-12T07:47:47;1.08;;;1.00;;
47413;SDS011;33163;0.000;0.000;2023-02-12T07:50:15;1.38;;;1.10;;
47413;SDS011;33163;0.000;0.000;2023-02-12T07:52:42;1.15;;;1.00;;
47413;SDS011;33163;0.000;0.000;2023-02-12T07:55:08;4.70;;;1.30;;
47413;SDS011;33163;0.000;0.000;2023-02-12T07:57:37;2.65;;;1.10;;
47413;SDS011;33163;0.000;0.000;2023-02-12T08:00:04;2.55;;;1.05;;
47413;SDS011;33163;0.000;0.000;2023-02-12T08:02:32;1.20;;;1.05;;
47413;SDS011;33163;0.000;0.000;2023-02-12T08:04:58;4.15;;;1.02;;
47413;SDS011;33163;0.000;0.000;2023-02-12T08:07:25;2.47;;;1.10;;
47413;SDS011;33163;0.000;0.000;2023-02-12T08:09:52;2.17;;;1.38;;
47413;SDS011;33163;0.000;0.000;2023-02-12T08:12:19;1.90;;;1.08;;
47413;SDS011;33163;0.000;0.000;2023-02-12T08:14:47;2.15;;;1.27;;
47413;SDS011;33163;0.000;0.000;2023-02-12T08:17:13;3.20;;;1.20;;
47413;SDS011;33163;0.000;0.000;2023-02-12T08:19:40;3.38;;;1.10;;
47413;SDS011;33163;0.000;0.000;2023-02-12T08:22:07;3.60;;;1.10;;
47413;SDS011;33163;0.000;0.000;2023-02-12T08:24:34;4.38;;;1.05;;
47413;SDS011;33163;0.000;0.000;2023-02-12T08:27:00;3.22;;;1.63;;
47413;SDS011;33163;0.000;0.000;2023-02-12T08:29:28;1.10;;;1.00;;
47413;SDS011;33163;0.000;0.000;2023-02-12T08:31:57;3.53;;;1.20;;
47413;SDS011;33163;0.000;0.000;2023-02-12T08:34:26;3.05;;;1.30;;
47413;SDS011;33163;0.000;0.000;2023-02-12T08:36:54;1.15;;;1.05;;
47413;SDS011;33163;0.000;0.000;2023-02-12T08:39:23;2.55;;;1.40;;
47413;SDS011;33163;0.000;0.000;2023-02-12T08:41:52;1.30;;;1.20;;
47413;SDS011;33163;0.000;0.000;2023-02-12T08:44:20;2.50;;;1.50;;
47413;SDS011;33163;0.000;0.000;2023-02-12T08:46:47;2.58;;;1.17;;
47413;SDS011;33163;0.000;0.000;2023-02-12T08:49:17;1.80;;;1.30;;
47413;SDS011;33163;0.000;0.000;2023-02-12T08:51:45;3.15;;;1.60;;
47413;SDS011;33163;0.000;0.000;2023-02-12T08:54:13;2.08;;;1.15;;
47413;SDS011;33163;0.000;0.000;2023-02-12T08:56:42;1.75;;;1.10;;
47413;SDS011;33163;0.000;0.000;2023-02-12T08:59:10;3.85;;;1.42;;
47413;SDS011;33163;0.000;0.000;2023-02-12T09:01:38;5.60;;;1.58;;
47413;SDS011;33163;0.000;0.000;2023-02-12T09:04:06;2.35;;;1.42;;
47413;SDS011;33163;0.000;0.000;2023-02-12T09:06:34;2.85;;;1.27;;
47413;SDS011;33163;0.000;0.000;2023-02-12T09:09:01;5.30;;;1.70;;
47413;SDS011;33163;0.000;0.000;2023-02-12T09:11:29;1.80;;;1.50;;
47413;SDS011;33163;0.000;0.000;2023-02-12T09:13:56;3.88;;;1.42;;
47413;SDS011;33163;0.000;0.000;2023-02-12T09:16:25;1.33;;;1.17;;
47413;SDS011;33163;0.000;0.000;2023-02-12T09:18:52;2.35;;;1.38;;
47413;SDS011;33163;0.000;0.000;2023-02-12T09:21:19;2.28;;;1.52;;
47413;SDS011;33163;0.000;0.000;2023-02-12T09:23:48;3.33;;;1.17;;
47413;SDS011;33163;0.000;0.000;2023-02-12T09:26:16;4.03;;;1.52;;
47413;SDS011;33163;0.000;0.000;2023-02-12T09:28:45;3.45;;;1.27;;
47413;SDS011;33163;0.000;0.000;2023-02-12T09:31:14;1.55;;;1.20;;
47413;SDS011;33163;0.000;0.000;2023-02-12T09:33:42;1.30;;;1.20;;
47413;SDS011;33163;0.000;0.000;2023-02-12T09:36:10;3.63;;;1.40;;
47413;SDS011;33163;0.000;0.000;2023-02-12T09:38:38;2.25;;;1.38;;
47413;SDS011;33163;0.000;0.000;2023-02-12T09:41:24;6.43;;;1.30;;
47413;SDS011;33163;0.000;0.000;2023-02-12T09:44:08;5.97;;;1.50;;
47413;SDS011;33163;0.000;0.000;2023-02-12T09:46:41;1.83;;;1.42;;
47413;SDS011;33163;0.000;0.000;2023-02-12T09:49:14;3.45;;;1.45;;
47413;SDS011;33163;0.000;0.000;2023-02-12T09:51:49;5.03;;;1.75;;
47413;SDS011;33163;0.000;0.000;2023-02-12T09:54:19;1.92;;;1.42;;
47413;SDS011;33163;0.000;0.000;2023-02-12T09:56:50;2.55;;;1.48;;
47413;SDS011;33163;0.000;0.000;2023-02-12T09:59:21;2.55;;;1.60;;
47413;SDS011;33163;0.000;0.000;2023-02-12T10:01:54;3.40;;;1.63;;
47413;SDS011;33163;0.000;0.000;2023-02-12T10:04:23;6.38;;;1.63;;
47413;SDS011;33163;0.000;0.000;2023-02-12T10:06:53;4.97;;;1.67;;
47413;SDS011;33163;0.000;0.000;2023-02-12T10:09:39;3.50;;;1.42;;
47413;SDS011;33163;0.000;0.000;2023-02-12T10:12:23;7.00;;;1.67;;
47413;SDS011;33163;0.000;0.000;2023-02-12T10:15:01;2.70;;;1.63;;
47413;SDS011;33163;0.000;0.000;2023-02-12T10:17:40;3.53;;;1.40;;
47413;SDS011;33163;0.000;0.000;2023-02-12T10:26:17;3.65;;;1.60;;
47413;SDS011;33163;0.000;0.000;2023-02-12T10:28:48;3.08;;;1.75;;
47413;SDS011;33163;0.000;0.000;2023-02-12T10:31:18;3.83;;;1.70;;
47413;SDS011;33163;0.000;0.000;2023-02-12T10:33:51;1.85;;;1.40;;
47413;SDS011;33163;0.000;0.000;2023-02-12T10:36:25;5.47;;;1.90;;
47413;SDS011;33163;0.000;0.000;2023-02-12T10:38:59;7.28;;;2.42;;
47413;SDS011;33163;0.000;0.000;2023-02-12T10:41:30;3.72;;;2.05;;
47413;SDS011;33163;0.000;0.000;2023-02-12T10:44:03;7.63;;;1.95;;
47413;SDS011;33163;0.000;0.000;2023-02-12T10:46:30;3.05;;;1.88;;
47413;SDS011;33163;0.000;0.000;2023-02-12T10:48:56;3.85;;;1.70;;
47413;SDS011;33163;0.000;0.000;2023-02-12T10:51:32;3.47;;;1.58;;
47413;SDS011;33163;0.000;0.000;2023-02-12T10:57:10;5.22;;;2.03;;
47413;SDS011;33163;0.000;0.000;2023-02-12T10:59:44;3.50;;;1.90;;
47413;SDS011;33163;0.000;0.000;2023-02-12T11:02:17;4.88;;;1.88;;
47413;SDS011;33163;0.000;0.000;2023-02-12T11:04:46;10.67;;;3.33;;
47413;SDS011;33163;0.000;0.000;2023-02-12T11:07:13;5.90;;;2.60;;
47413;SDS011;33163;0.000;0.000;2023-02-12T11:09:41;6.82;;;2.75;;
47413;SDS011;33163;0.000;0.000;2023-02-12T11:14:58;6.38;;;2.25;;
47413;SDS011;33163;0.000;0.000;2023-02-12T11:17:30;6.28;;;2.45;;
47413;SDS011;33163;0.000;0.000;2023-02-12T11:20:01;4.00;;;2.15;;
47413;SDS011;33163;0.000;0.000;2023-02-12T11:22:33;10.85;;;3.08;;
47413;SDS011;33163;0.000;0.000;2023-02-12T11:25:01;4.43;;;2.30;;
47413;SDS011;33163;0.000;0.000;2023-02-12T11:27:40;3.42;;;2.10;;
47413;SDS011;33163;0.000;0.000;2023-02-12T11:30:14;4.90;;;2.65;;
47413;SDS011;33163;0.000;0.000;2023-02-12T11:32:45;7.32;;;2.53;;
47413;SDS011;33163;0.000;0.000;2023-02-12T11:35:14;7.50;;;2.25;;
47413;SDS011;33163;0.000;0.000;2023-02-12T11:37:48;5.15;;;2.05;;
47413;SDS011;33163;0.000;0.000;2023-02-12T11:40:20;3.28;;;2.15;;
47413;SDS011;33163;0.000;0.000;2023-02-12T11:42:49;3.05;;;1.90;;
47413;SDS011;33163;0.000;0.000;2023-02-12T11:45:20;4.30;;;1.98;;
47413;SDS011;33163;0.000;0.000;2023-02-12T11:47:49;2.47;;;2.00;;
47413;SDS011;33163;0.000;0.000;2023-02-12T11:50:19;5.70;;;2.30;;
47413;SDS011;33163;0.000;0.000;2023-02-12T11:52:51;8.53;;;2.10;;
47413;SDS011;33163;0.000;0.000;2023-02-12T11:55:21;6.72;;;2.05;;
47413;SDS011;33163;0.000;0.000;2023-02-12T11:57:50;2.25;;;1.83;;
47413;SDS011;33163;0.000;0.000;2023-02-12T12:02:54;3.67;;;2.08;;
47413;SDS011;33163;0.000;0.000;2023-02-12T12:05:28;3.42;;;1.98;;
47413;SDS011;33163;0.000;0.000;2023-02-12T12:08:01;5.38;;;2.33;;
47413;SDS011;33163;0.000;0.000;2023-02-12T12:10:31;2.97;;;1.98;;
47413;SDS011;33163;0.000;0.000;2023-02-12T12:13:03;3.60;;;2.10;;
47413;SDS011;33163;0.000;0.000;2023-02-12T12:15:39;4.15;;;2.05;;
47413;SDS011;33163;0.000;0.000;2023-02-12T12:18:30;5.00;;;2.10;;
47413;SDS011;33163;0.000;0.000;2023-02-12T12:21:19;3.03;;;2.03;;
47413;SDS011;33163;0.000;0.000;2023-02-12T12:23:51;3.47;;;2.13;;
47413;SDS011;33163;0.000;0.000;2023-02-12T12:26:20;2.63;;;1.90;;
47413;SDS011;33163;0.000;0.000;2023-02-12T12:28:50;3.70;;;1.70;;
47413;SDS011;33163;0.000;0.000;2023-02-12T12:31:24;5.18;;;2.20;;
47413;SDS011;33163;0.000;0.000;2023-02-12T12:33:57;3.50;;;2.15;;
47413;SDS011;33163;0.000;0.000;2023-02-12T12:36:40;4.18;;;2.47;;
47413;SDS011;33163;0.000;0.000;2023-02-12T12:39:26;3.10;;;1.92;;
47413;SDS011;33163;0.000;0.000;2023-02-12T12:45:16;3.10;;;1.90;;
47413;SDS011;33163;0.000;0.000;2023-02-12T12:47:59;2.30;;;1.67;;
47413;SDS011;33163;0.000;0.000;2023-02-12T12:50:42;3.20;;;2.17;;
47413;SDS011;33163;0.000;0.000;2023-02-12T12:53:23;2.38;;;1.95;;
47413;SDS011;33163;0.000;0.000;2023-02-12T12:56:06;4.03;;;2.22;;
47413;SDS011;33163;0.000;0.000;2023-02-12T12:58:45;3.55;;;2.00;;
47413;SDS011;33163;0.000;0.000;2023-02-12T13:01:41;1.73;;;1.60;;
47413;SDS011;33163;0.000;0.000;2023-02-12T13:04:31;3.35;;;1.67;;
47413;SDS011;33163;0.000;0.000;2023-02-12T13:07:30;4.43;;;2.42;;
47413;SDS011;33163;0.000;0.000;2023-02-12T13:10:13;2.10;;;1.63;;
47413;SDS011;33163;0.000;0.000;2023-02-12T13:12:59;2.42;;;1.90;;
47413;SDS011;33163;0.000;0.000;2023-02-12T13:15:36;1.90;;;1.70;;
47413;SDS011;33163;0.000;0.000;2023-02-12T13:18:12;3.53;;;1.70;;
47413;SDS011;33163;0.000;0.000;2023-02-12T13:20:48;2.40;;;1.73;;
47413;SDS011;33163;0.000;0.000;2023-02-12T13:23:24;3.20;;;1.83;;
47413;SDS011;33163;0.000;0.000;2023-02-12T13:26:02;2.72;;;1.92;;
47413;SDS011;33163;0.000;0.000;2023-02-12T13:28:37;2.35;;;1.80;;
47413;SDS011;33163;0.000;0.000;2023-02-12T13:31:07;3.67;;;1.77;;
47413;SDS011;33163;0.000;0.000;2023-02-12T13:33:40;3.45;;;2.05;;
47413;SDS011;33163;0.000;0.000;2023-02-12T13:36:12;3.67;;;1.90;;
47413;SDS011;33163;0.000;0.000;2023-02-12T13:38:41;2.20;;;1.52;;
47413;SDS011;33163;0.000;0.000;2023-02-12T13:41:13;4.63;;;1.80;;
47413;SDS011;33163;0.000;0.000;2023-02-12T13:43:45;2.33;;;1.90;;
47413;SDS011;33163;0.000;0.000;2023-02-12T13:46:25;3.40;;;1.92;;
47413;SDS011;33163;0.000;0.000;2023-02-12T13:51:35;3.00;;;1.95;;
47413;SDS011;33163;0.000;0.000;2023-02-12T13:54:13;3.38;;;1.98;;
47413;SDS011;33163;0.000;0.000;2023-02-12T13:56:50;2.60;;;2.13;;
47413;SDS011;33163;0.000;0.000;2023-02-12T13:59:38;2.22;;;1.73;;
47413;SDS011;33163;0.000;0.000;2023-02-12T14:05:18;1.98;;;1.80;;
47413;SDS011;33163;0.000;0.000;2023-02-12T14:07:49;2.00;;;1.52;;
47413;SDS011;33163;0.000;0.000;2023-02-12T14:10:28;3.45;;;2.17;;
47413;SDS011;33163;0.000;0.000;2023-02-12T14:12:58;3.00;;;1.85;;
47413;SDS011;33163;0.000;0.000;2023-02-12T14:15:46;3.38;;;1.70;;
47413;SDS011;33163;0.000;0.000;2023-02-12T14:18:27;2.75;;;1.98;;
47413;SDS011;33163;0.000;0.000;2023-02-12T14:27:26;3.08;;;2.30;;
47413;SDS011;33163;0.000;0.000;2023-02-12T14:29:59;5.18;;;2.28;;
47413;SDS011;33163;0.000;0.000;2023-02-12T14:38:56;4.30;;;2.53;;
47413;SDS011;33163;0.000;0.000;2023-02-12T14:41:26;1.85;;;1.75;;
47413;SDS011;33163;0.000;0.000;2023-02-12T14:47:11;5.57;;;2.65;;
47413;SDS011;33163;0.000;0.000;2023-02-12T14:49:43;3.75;;;2.70;;
47413;SDS011;33163;0.000;0.000;2023-02-12T14:52:13;3.17;;;2.63;;
47413;SDS011;33163;0.000;0.000;2023-02-12T14:54:44;5.95;;;2.55;;
47413;SDS011;33163;0.000;0.000;2023-02-12T14:57:19;2.60;;;2.20;;
47413;SDS011;33163;0.000;0.000;2023-02-12T14:59:53;3.95;;;2.40;;
47413;SDS011;33163;0.000;0.000;2023-02-12T15:02:29;4.40;;;2.92;;
47413;SDS011;33163;0.000;0.000;2023-02-12T15:05:00;5.15;;;2.85;;
47413;SDS011;33163;0.000;0.000;2023-02-12T15:07:30;3.83;;;2.45;;
47413;SDS011;33163;0.000;0.000;2023-02-12T15:10:03;5.70;;;2.65;;
47413;SDS011;33163;0.000;0.000;2023-02-12T15:12:36;4.47;;;3.17;;
47413;SDS011;33163;0.000;0.000;2023-02-12T15:15:11;4.05;;;2.20;;
47413;SDS011;33163;0.000;0.000;2023-02-12T15:17:47;5.07;;;2.80;;
47413;SDS011;33163;0.000;0.000;2023-02-12T15:20:23;4.22;;;3.05;;
47413;SDS011;33163;0.000;0.000;2023-02-12T15:22:58;2.95;;;2.60;;
47413;SDS011;33163;0.000;0.000;2023-02-12T15:25:27;3.53;;;2.92;;
47413;SDS011;33163;0.000;0.000;2023-02-12T15:27:57;4.00;;;3.30;;
47413;SDS011;33163;0.000;0.000;2023-02-12T15:30:30;5.05;;;3.22;;
47413;SDS011;33163;0.000;0.000;2023-02-12T15:35:33;4.10;;;3.00;;
47413;SDS011;33163;0.000;0.000;2023-02-12T15:38:01;4.28;;;3.28;;
47413;SDS011;33163;0.000;0.000;2023-02-12T15:40:31;4.00;;;3.60;;
47413;SDS011;33163;0.000;0.000;2023-02-12T15:43:01;3.50;;;3.17;;
47413;SDS011;33163;0.000;0.000;2023-02-12T15:45:30;4.90;;;3.20;;
47413;SDS011;33163;0.000;0.000;2023-02-12T15:48:03;3.08;;;2.58;;
47413;SDS011;33163;0.000;0.000;2023-02-12T15:50:44;2.67;;;2.42;;
47413;SDS011;33163;0.000;0.000;2023-02-12T15:53:15;3.63;;;3.25;;
47413;SDS011;33163;0.000;0.000;2023-02-12T15:55:47;4.35;;;3.28;;
47413;SDS011;33163;0.000;0.000;2023-02-12T15:58:24;3.65;;;3.28;;
47413;SDS011;33163;0.000;0.000;2023-02-12T16:00:54;4.07;;;3.15;;
47413;SDS011;33163;0.000;0.000;2023-02-12T16:03:29;5.22;;;3.47;;
47413;SDS011;33163;0.000;0.000;2023-02-12T16:06:00;3.67;;;3.15;;